Time;durP1;ratioP1;P1;durP2;ratioP2;P2;SDS_P1;SDS_P2;PMS_P1;PMS_P2;Temp;Humidity;BMP_temperature;BMP_pressure;BME280_temperature;BME280_humidity;BME280_pressure;Samples;Min_cycle;Max_cycle;Signal;HPM_P1;HPM_P2
2024/02/27 00:01:33;;;;;;;;;;;;;;;6.14;60.50;101507.02;107549;1252;107355;-63
2024/02/27 00:04:01;;;;;;;;;;;;;;;6.18;60.78;101506.98;107522;1253;97902;-64
2024/02/27 00:06:30;;;;;;;;;;;;;;;6.22;60.84;101502.61;107600;1254;97855;-64
2024/02/27 00:08:59;;;;;;;;;;;;;;;6.22;60.54;101500.84;107537;1254;111712;-65
2024/02/27 00:11:29;;;;;;;;;;;;;;;6.20;60.44;101499.04;107585;1254;108542;-65
2024/02/27 00:13:57;;;;;;;;;;;;;;;6.16;60.49;101499.23;107594;1253;108530;-65
2024/02/27 00:16:25;;;;;;;;;;;;;;;6.11;60.57;101502.92;107527;1253;97829;-63
2024/02/27 00:18:53;;;;;;;;;;;;;;;6.10;60.77;101503.52;107577;1254;97733;-64
2024/02/27 00:21:22;;;;;;;;;;;;;;;6.08;60.88;101503.25;107596;1254;111152;-62
2024/02/27 00:23:50;;;;;;;;;;;;;;;6.04;60.78;101506.02;107550;1253;108862;-64
2024/02/27 00:26:19;;;;;;;;;;;;;;;6.00;60.79;101507.13;107520;1254;106965;-64
2024/02/27 00:28:47;;;;;;;;;;;;;;;5.97;60.94;101507.80;107552;1253;97819;-65
2024/02/27 00:31:16;;;;;;;;;;;;;;;5.90;60.96;101507.47;107591;1254;98783;-64
2024/02/27 00:33:44;;;;;;;;;;;;;;;5.84;60.87;101508.86;107556;1252;110931;-64
2024/02/27 00:36:12;;;;;;;;;;;;;;;5.80;61.11;101508.40;107591;1250;108695;-64
2024/02/27 00:38:44;;;;;;;;;;;;;;;5.75;61.22;101504.05;107594;1251;108216;-63
2024/02/27 00:41:12;;;;;;;;;;;;;;;5.71;61.26;101504.98;107572;1251;97726;-64
2024/02/27 00:43:40;;;;;;;;;;;;;;;5.68;61.31;101501.44;107586;1251;97704;-64
2024/02/27 00:46:08;;;;;;;;;;;;;;;5.65;61.49;101506.55;107569;1250;111787;-64
2024/02/27 00:48:36;;;;;;;;;;;;;;;5.65;61.67;101503.36;107569;1254;107996;-64
2024/02/27 00:51:05;;;;;;;;;;;;;;;5.63;61.57;101504.13;107554;1253;106499;-63
2024/02/27 00:53:33;;;;;;;;;;;;;;;5.60;61.51;101501.68;107566;1251;97912;-64
2024/02/27 00:56:01;;;;;;;;;;;;;;;5.55;61.81;101503.34;107647;1253;97707;-64
2024/02/27 00:58:30;;;;;;;;;;;;;;;5.50;62.05;101499.58;107585;1253;111446;-65
2024/02/27 01:00:58;;;;;;;;;;;;;;;5.47;61.94;101501.69;107597;1254;108427;-64
2024/02/27 01:03:26;;;;;;;;;;;;;;;5.41;61.95;101499.34;107579;1252;108964;-62
2024/02/27 01:05:54;;;;;;;;;;;;;;;5.37;62.25;101498.69;107601;1253;97739;-63
2024/02/27 01:08:23;;;;;;;;;;;;;;;5.35;62.34;101494.17;107598;1254;97789;-64
2024/02/27 01:10:51;;;;;;;;;;;;;;;5.32;62.57;101491.98;107642;1252;112578;-64
2024/02/27 01:13:19;;;;;;;;;;;;;;;5.30;62.32;101488.02;107568;1253;107120;-63
2024/02/27 01:15:48;;;;;;;;;;;;;;;5.24;62.53;101486.20;107582;1252;107866;-63
2024/02/27 01:18:16;;;;;;;;;;;;;;;5.15;62.52;101486.69;107559;1254;97832;-66
2024/02/27 01:20:44;;;;;;;;;;;;;;;5.09;62.36;101486.88;107476;1250;97960;-64
2024/02/27 01:23:13;;;;;;;;;;;;;;;5.02;62.32;101482.61;107517;1252;111903;-65
2024/02/27 01:25:42;;;;;;;;;;;;;;;4.95;62.39;101483.66;107482;1254;108770;-63
2024/02/27 01:28:10;;;;;;;;;;;;;;;4.88;62.49;101489.20;107475;1254;108114;-65
2024/02/27 01:30:38;;;;;;;;;;;;;;;4.83;62.79;101492.14;107512;1255;97978;-64
2024/02/27 01:33:06;;;;;;;;;;;;;;;4.77;62.78;101497.44;107526;1254;97816;-65
2024/02/27 01:35:35;;;;;;;;;;;;;;;4.67;62.78;101497.91;107523;1254;111720;-65
2024/02/27 01:38:03;;;;;;;;;;;;;;;4.60;63.53;101503.98;107460;1253;109270;-66
2024/02/27 01:40:32;;;;;;;;;;;;;;;4.54;63.36;101504.80;107560;1253;107996;-64
2024/02/27 01:43:00;;;;;;;;;;;;;;;4.52;63.55;101514.55;107558;1254;97848;-64
2024/02/27 01:45:28;;;;;;;;;;;;;;;4.50;63.56;101516.23;107550;1254;97737;-63
2024/02/27 01:47:57;;;;;;;;;;;;;;;4.48;63.67;101516.88;107571;1254;111683;-65
2024/02/27 01:50:25;;;;;;;;;;;;;;;4.45;63.72;101517.03;107549;1254;107501;-64
2024/02/27 01:52:54;;;;;;;;;;;;;;;4.40;63.89;101519.05;107477;1253;108707;-63
2024/02/27 01:55:22;;;;;;;;;;;;;;;4.36;64.07;101516.21;107549;1253;97947;-63
2024/02/27 01:57:52;;;;;;;;;;;;;;;4.35;64.09;101516.05;107478;1253;97746;-63
2024/02/27 02:00:21;;;;;;;;;;;;;;;4.33;64.10;101513.55;107594;1254;111737;-63
2024/02/27 02:02:49;;;;;;;;;;;;;;;4.29;64.38;101516.76;107585;1254;108836;-62
2024/02/27 02:05:18;;;;;;;;;;;;;;;4.27;64.28;101518.98;107549;1252;108218;-63
2024/02/27 02:07:47;;;;;;;;;;;;;;;4.24;65.05;101519.67;107578;1253;97851;-64
2024/02/27 02:10:15;;;;;;;;;;;;;;;4.20;65.90;101521.96;107545;1254;97899;-63
2024/02/27 02:12:43;;;;;;;;;;;;;;;4.16;65.99;101524.16;107553;1253;112246;-62
2024/02/27 02:15:11;;;;;;;;;;;;;;;4.14;65.67;101526.20;107567;1256;108210;-65
2024/02/27 02:17:41;;;;;;;;;;;;;;;4.14;65.58;101520.34;107596;1253;106403;-65
2024/02/27 02:20:14;;;;;;;;;;;;;;;4.14;65.99;101526.91;107507;1254;97925;-65
2024/02/27 02:22:42;;;;;;;;;;;;;;;4.12;65.79;101527.73;107464;1254;98536;-64
2024/02/27 02:25:14;;;;;;;;;;;;;;;4.11;65.94;101530.42;107509;1254;111918;-65
2024/02/27 02:27:43;;;;;;;;;;;;;;;4.11;66.14;101531.48;107613;1254;108442;-65
2024/02/27 02:30:14;;;;;;;;;;;;;;;4.10;65.95;101534.02;107576;1253;108226;-64
2024/02/27 02:32:49;;;;;;;;;;;;;;;4.05;65.86;101537.61;107542;1254;98506;-64
2024/02/27 02:35:17;;;;;;;;;;;;;;;4.02;65.91;101536.70;107558;1253;97823;-65
2024/02/27 02:37:49;;;;;;;;;;;;;;;3.98;66.20;101537.98;107595;1254;111032;-64
2024/02/27 02:40:19;;;;;;;;;;;;;;;3.95;66.15;101541.64;107602;1254;107636;-63
2024/02/27 02:42:48;;;;;;;;;;;;;;;3.93;65.99;101543.01;107656;1256;107681;-63
2024/02/27 02:45:16;;;;;;;;;;;;;;;3.92;66.17;101542.52;107628;1254;97833;-63
2024/02/27 02:47:45;;;;;;;;;;;;;;;3.91;65.99;101538.84;107506;1253;97851;-65
2024/02/27 02:50:13;;;;;;;;;;;;;;;3.89;66.26;101540.02;107611;1253;111313;-64
2024/02/27 02:52:44;;;;;;;;;;;;;;;3.85;66.23;101544.45;107608;1252;108382;-63
2024/02/27 02:55:12;;;;;;;;;;;;;;;3.81;66.27;101547.28;107607;1252;107459;-63
2024/02/27 02:57:41;;;;;;;;;;;;;;;3.77;66.48;101546.40;107583;1254;97842;-63
2024/02/27 03:00:09;;;;;;;;;;;;;;;3.72;66.67;101544.86;107608;1255;97834;-63
2024/02/27 03:02:38;;;;;;;;;;;;;;;3.70;66.89;101544.45;107605;1255;111415;-65
2024/02/27 03:05:06;;;;;;;;;;;;;;;3.70;67.27;101549.61;107589;1254;107642;-65
2024/02/27 03:07:34;;;;;;;;;;;;;;;3.73;67.75;101550.67;107636;1253;107551;-64
2024/02/27 03:10:03;;;;;;;;;;;;;;;3.74;67.50;101546.19;107628;1252;97819;-66
2024/02/27 03:12:31;;;;;;;;;;;;;;;3.73;67.31;101552.11;107617;1253;97822;-65
2024/02/27 03:15:00;;;;;;;;;;;;;;;3.71;67.31;101551.33;107627;1255;110754;-64
2024/02/27 03:17:29;;;;;;;;;;;;;;;3.69;67.31;101552.13;107603;1253;108831;-64
2024/02/27 03:19:57;;;;;;;;;;;;;;;3.68;66.96;101556.45;107614;1254;107354;-64
2024/02/27 03:22:26;;;;;;;;;;;;;;;3.66;67.29;101561.33;107645;1253;97833;-66
2024/02/27 03:24:54;;;;;;;;;;;;;;;3.63;66.88;101560.41;107652;1254;97855;-67
2024/02/27 03:27:22;;;;;;;;;;;;;;;3.59;66.80;101564.30;107617;1254;111605;-64
2024/02/27 03:29:50;;;;;;;;;;;;;;;3.55;66.75;101559.52;107621;1252;108747;-62
2024/02/27 03:32:19;;;;;;;;;;;;;;;3.52;67.16;101564.10;107565;1254;107531;-65
2024/02/27 03:34:48;;;;;;;;;;;;;;;3.49;67.13;101559.95;107626;1253;97858;-63
2024/02/27 03:37:16;;;;;;;;;;;;;;;3.47;67.23;101563.96;107667;1253;97946;-64
2024/02/27 03:39:45;;;;;;;;;;;;;;;3.44;66.85;101562.48;107671;1254;112051;-64
2024/02/27 03:42:13;;;;;;;;;;;;;;;3.42;66.95;101563.30;107590;1255;107800;-66
2024/02/27 03:44:47;;;;;;;;;;;;;;;3.38;66.85;101562.61;107618;1251;108208;-64
2024/02/27 03:47:16;;;;;;;;;;;;;;;3.34;67.02;101567.03;107632;1254;97922;-64
2024/02/27 03:49:44;;;;;;;;;;;;;;;3.30;67.09;101565.96;107582;1254;97737;-64
2024/02/27 03:52:12;;;;;;;;;;;;;;;3.26;67.40;101566.67;107616;1252;111930;-64
2024/02/27 03:54:40;;;;;;;;;;;;;;;3.23;67.22;101565.39;107628;1253;108248;-64
2024/02/27 03:57:10;;;;;;;;;;;;;;;3.20;67.40;101563.59;107554;1255;108244;-64
2024/02/27 03:59:39;;;;;;;;;;;;;;;3.17;67.35;101560.35;107604;1254;97828;-63
2024/02/27 04:02:07;;;;;;;;;;;;;;;3.15;67.70;101565.23;107632;1251;97834;-64
2024/02/27 04:04:35;;;;;;;;;;;;;;;3.13;67.83;101564.22;107656;1251;111839;-63
2024/02/27 04:07:04;;;;;;;;;;;;;;;3.11;68.01;101559.92;107630;1251;107934;-65
2024/02/27 04:09:32;;;;;;;;;;;;;;;3.08;68.17;101558.42;107657;1251;107286;-65
2024/02/27 04:12:01;;;;;;;;;;;;;;;3.08;67.96;101556.68;107623;1256;97819;-64
2024/02/27 04:14:29;;;;;;;;;;;;;;;3.07;68.63;101556.89;107609;1252;97855;-63
2024/02/27 04:16:57;;;;;;;;;;;;;;;3.05;68.75;101559.13;107636;1253;111786;-64
2024/02/27 04:19:26;;;;;;;;;;;;;;;3.03;69.16;101557.77;107611;1254;108636;-65
2024/02/27 04:21:54;;;;;;;;;;;;;;;3.01;69.23;101560.52;107585;1254;107799;-66
2024/02/27 04:24:22;;;;;;;;;;;;;;;3.01;69.44;101557.30;107629;1254;97902;-64
2024/02/27 04:26:51;;;;;;;;;;;;;;;3.04;69.28;101558.80;107659;1255;97768;-63
2024/02/27 04:29:21;;;;;;;;;;;;;;;3.07;69.27;101557.42;107616;1254;111041;-64
2024/02/27 04:31:49;;;;;;;;;;;;;;;3.11;69.39;101557.41;107578;1253;108518;-63
2024/02/27 04:34:17;;;;;;;;;;;;;;;3.15;69.51;101558.84;107595;1254;108373;-64
2024/02/27 04:36:47;;;;;;;;;;;;;;;3.17;69.72;101554.50;107559;1252;97840;-65
2024/02/27 04:39:15;;;;;;;;;;;;;;;3.19;69.69;101554.40;107638;1256;97812;-64
2024/02/27 04:41:43;;;;;;;;;;;;;;;3.20;70.09;101556.66;107658;1254;111211;-63
2024/02/27 04:44:12;;;;;;;;;;;;;;;3.20;70.05;101553.14;107628;1254;108463;-65
2024/02/27 04:46:40;;;;;;;;;;;;;;;3.16;70.00;101554.52;107638;1253;107032;-64
2024/02/27 04:49:08;;;;;;;;;;;;;;;3.15;70.01;101555.48;107646;1251;97828;-64
2024/02/27 04:51:36;;;;;;;;;;;;;;;3.15;70.15;101552.82;107637;1251;97909;-64
2024/02/27 04:54:05;;;;;;;;;;;;;;;3.11;70.50;101554.77;107610;1255;111882;-63
2024/02/27 04:56:33;;;;;;;;;;;;;;;3.10;70.45;101557.09;107516;1254;108118;-64
2024/02/27 04:59:01;;;;;;;;;;;;;;;3.13;70.51;101558.91;107622;1252;108629;-64
2024/02/27 05:01:29;;;;;;;;;;;;;;;3.16;70.62;101558.81;107604;1254;97864;-64
2024/02/27 05:03:57;;;;;;;;;;;;;;;3.14;70.59;101554.95;107607;1253;97845;-63
2024/02/27 05:06:26;;;;;;;;;;;;;;;3.14;71.01;101557.83;107621;1256;113120;-64
2024/02/27 05:08:54;;;;;;;;;;;;;;;3.13;71.23;101562.27;107609;1254;108045;-63
2024/02/27 05:11:22;;;;;;;;;;;;;;;3.11;71.04;101561.99;107573;1254;108061;-64
2024/02/27 05:13:51;;;;;;;;;;;;;;;3.14;71.05;101567.04;107576;1254;97958;-68
2024/02/27 05:16:19;;;;;;;;;;;;;;;3.19;71.27;101571.26;107619;1254;97850;-69
2024/02/27 05:18:47;;;;;;;;;;;;;;;3.19;71.09;101578.67;107598;1254;111407;-64
2024/02/27 05:21:19;;;;;;;;;;;;;;;3.20;71.12;101583.78;107620;1254;107717;-64
2024/02/27 05:23:48;;;;;;;;;;;;;;;3.21;71.07;101588.52;107655;1254;107364;-65
2024/02/27 05:26:16;;;;;;;;;;;;;;;3.22;70.99;101584.39;107605;1251;97823;-64
2024/02/27 05:28:45;;;;;;;;;;;;;;;3.22;70.77;101584.77;107551;1251;97929;-64
2024/02/27 05:31:26;;;;;;;;;;;;;;;3.21;71.04;101586.20;107592;1251;111436;-65
2024/02/27 05:33:56;;;;;;;;;;;;;;;3.23;71.27;101588.08;107585;1256;108290;-64
2024/02/27 05:36:25;;;;;;;;;;;;;;;3.20;71.18;101589.98;107639;1251;107117;-64
2024/02/27 05:38:53;;;;;;;;;;;;;;;3.20;71.49;101591.59;107581;1251;97842;-67
2024/02/27 05:41:22;;;;;;;;;;;;;;;3.20;71.97;101596.00;107591;1256;97937;-65
2024/02/27 05:43:51;;;;;;;;;;;;;;;3.21;72.97;101599.55;107588;1254;111403;-64
2024/02/27 05:46:19;;;;;;;;;;;;;;;3.20;72.88;101599.91;107586;1254;108462;-64
2024/02/27 05:48:48;;;;;;;;;;;;;;;3.21;72.85;101605.54;107581;1255;107400;-63
2024/02/27 05:51:16;;;;;;;;;;;;;;;3.23;73.43;101607.74;107557;1251;98496;-64
2024/02/27 05:53:45;;;;;;;;;;;;;;;3.26;73.86;101610.79;107605;1251;97723;-64
2024/02/27 05:56:13;;;;;;;;;;;;;;;3.29;74.02;101611.75;107507;1251;111747;-64
2024/02/27 05:58:42;;;;;;;;;;;;;;;3.32;73.65;101610.57;107569;1251;107478;-65
2024/02/27 06:01:10;;;;;;;;;;;;;;;3.37;73.58;101613.54;107461;1251;108149;-63
2024/02/27 06:03:38;;;;;;;;;;;;;;;3.43;73.74;101617.84;107506;1251;97746;-65
2024/02/27 06:06:08;;;;;;;;;;;;;;;3.45;74.21;101617.21;107540;1251;97975;-65
2024/02/27 06:08:36;;;;;;;;;;;;;;;3.47;74.06;101621.23;107493;1254;110614;-64
2024/02/27 06:11:05;;;;;;;;;;;;;;;3.50;73.87;101622.36;107513;1254;108641;-64
2024/02/27 06:13:33;;;;;;;;;;;;;;;3.59;74.09;101623.73;107433;1254;108521;-65
2024/02/27 06:16:01;;;;;;;;;;;;;;;3.68;73.80;101621.89;107459;1254;97906;-66
2024/02/27 06:18:30;;;;;;;;;;;;;;;3.74;73.93;101620.71;107458;1254;97942;-66
2024/02/27 06:23:46;;;;;;;;;;;;;;;3.94;74.12;101623.68;107514;1253;108588;-64
2024/02/27 06:26:15;;;;;;;;;;;;;;;4.04;73.97;101625.90;107470;1254;108468;-62
2024/02/27 06:28:43;;;;;;;;;;;;;;;4.10;74.00;101626.33;107489;1254;97886;-62
2024/02/27 06:31:12;;;;;;;;;;;;;;;4.14;73.87;101624.73;107483;1254;97898;-64
2024/02/27 06:33:40;;;;;;;;;;;;;;;4.20;73.83;101624.63;107511;1251;111810;-64
2024/02/27 06:36:10;;;;;;;;;;;;;;;4.24;73.67;101625.30;107489;1251;107480;-63
2024/02/27 06:38:38;;;;;;;;;;;;;;;4.31;73.78;101628.52;107481;1251;107854;-64
2024/02/27 06:41:07;;;;;;;;;;;;;;;4.36;73.45;101621.86;107500;1251;97854;-65
2024/02/27 06:43:35;;;;;;;;;;;;;;;4.46;73.29;101625.81;107533;1254;97697;-66
2024/02/27 06:46:05;;;;;;;;;;;;;;;4.58;73.36;101628.12;107496;1254;111909;-66
2024/02/27 06:48:36;;;;;;;;;;;;;;;4.72;73.32;101629.02;107471;1254;107946;-62
2024/02/27 06:51:06;;;;;;;;;;;;;;;4.83;73.08;101630.59;107505;1254;108775;-64
2024/02/27 06:53:35;;;;;;;;;;;;;;;4.89;72.49;101633.30;107447;1254;97943;-64
2024/02/27 06:56:04;;;;;;;;;;;;;;;4.91;72.12;101631.41;107644;1251;97847;-65
2024/02/27 06:58:33;;;;;;;;;;;;;;;4.94;71.95;101628.24;107558;1251;111710;-63
2024/02/27 07:01:01;;;;;;;;;;;;;;;4.98;71.66;101630.88;107465;1251;108584;-64
2024/02/27 07:03:30;;;;;;;;;;;;;;;5.05;71.85;101628.79;107556;1251;108401;-64
2024/02/27 07:06:00;;;;;;;;;;;;;;;5.14;71.76;101629.38;107467;1254;97823;-63
2024/02/27 07:08:30;;;;;;;;;;;;;;;5.22;71.67;101633.95;107487;1254;97717;-64
2024/02/27 07:10:58;;;;;;;;;;;;;;;5.27;71.40;101634.39;107555;1251;112285;-66
2024/02/27 07:13:26;;;;;;;;;;;;;;;5.31;70.95;101639.48;107490;1255;108060;-66
2024/02/27 07:15:54;;;;;;;;;;;;;;;5.43;71.10;101639.77;107484;1251;107330;-65
2024/02/27 07:18:23;;;;;;;;;;;;;;;5.55;70.93;101642.70;107495;1252;97851;-63
2024/02/27 07:20:51;;;;;;;;;;;;;;;5.65;70.56;101639.86;107476;1251;97832;-63
2024/02/27 07:23:19;;;;;;;;;;;;;;;5.75;70.11;101642.52;107466;1254;111749;-64
2024/02/27 07:25:47;;;;;;;;;;;;;;;5.81;69.87;101644.86;107485;1251;108137;-63
2024/02/27 07:28:15;;;;;;;;;;;;;;;5.87;69.46;101650.05;107446;1254;107710;-63
2024/02/27 07:30:52;;;;;;;;;;;;;;;5.89;69.29;101651.03;107534;1253;97714;-63
2024/02/27 07:33:20;;;;;;;;;;;;;;;5.93;69.02;101652.05;107515;1254;97845;-64
2024/02/27 07:35:49;;;;;;;;;;;;;;;5.95;68.83;101650.88;107495;1253;111878;-62
2024/02/27 07:38:18;;;;;;;;;;;;;;;6.00;68.96;101650.81;107484;1256;108270;-62
2024/02/27 07:40:46;;;;;;;;;;;;;;;6.09;68.97;101649.42;107467;1251;107468;-65
2024/02/27 07:43:15;;;;;;;;;;;;;;;6.20;68.72;101653.81;107527;1256;97918;-63
2024/02/27 07:45:43;;;;;;;;;;;;;;;6.33;68.74;101658.64;107534;1254;97840;-63
2024/02/27 07:48:12;;;;;;;;;;;;;;;6.43;68.31;101658.55;107486;1253;111184;-65
2024/02/27 07:50:40;;;;;;;;;;;;;;;6.55;68.21;101658.60;107554;1255;108349;-64
2024/02/27 07:53:08;;;;;;;;;;;;;;;6.67;67.82;101651.88;107473;1255;107410;-62
2024/02/27 07:55:38;;;;;;;;;;;;;;;6.78;67.48;101658.39;107470;1256;97880;-64
2024/02/27 07:58:08;;;;;;;;;;;;;;;6.90;67.73;101657.47;107513;1251;97824;-64
2024/02/27 08:00:36;;;;;;;;;;;;;;;7.02;67.68;101661.04;107476;1251;112526;-65
2024/02/27 08:03:06;;;;;;;;;;;;;;;7.15;67.49;101663.47;107486;1251;108325;-63
2024/02/27 08:05:34;;;;;;;;;;;;;;;7.27;67.42;101659.92;107462;1251;107244;-63
2024/02/27 08:08:03;;;;;;;;;;;;;;;7.40;67.07;101666.11;107422;1255;97831;-63
2024/02/27 08:10:31;;;;;;;;;;;;;;;7.52;66.22;101665.58;107562;1251;97844;-64
2024/02/27 08:12:59;;;;;;;;;;;;;;;7.58;65.99;101663.38;107507;1251;111245;-64
2024/02/27 08:15:27;;;;;;;;;;;;;;;7.72;65.79;101663.95;107441;1251;107233;-68
2024/02/27 08:17:56;;;;;;;;;;;;;;;7.85;64.91;101667.61;107377;1257;107148;-67
2024/02/27 08:20:24;;;;;;;;;;;;;;;8.01;65.22;101670.05;107445;1251;98372;-67
2024/02/27 08:22:53;;;;;;;;;;;;;;;8.14;63.93;101667.07;107450;1251;97832;-67
2024/02/27 08:25:21;;;;;;;;;;;;;;;8.23;63.63;101671.67;107507;1251;111540;-64
2024/02/27 08:27:49;;;;;;;;;;;;;;;8.36;63.02;101668.86;107587;1254;108400;-65
2024/02/27 08:30:18;;;;;;;;;;;;;;;8.46;62.29;101671.98;107537;1256;108419;-63
2024/02/27 08:32:46;;;;;;;;;;;;;;;8.58;62.32;101675.75;107564;1254;97925;-63
2024/02/27 08:35:19;;;;;;;;;;;;;;;8.69;61.36;101670.16;107583;1254;97889;-65
2024/02/27 08:37:47;;;;;;;;;;;;;;;8.76;61.15;101677.03;107583;1257;112107;-63
2024/02/27 08:40:15;;;;;;;;;;;;;;;8.82;60.95;101677.52;107591;1254;107788;-62
2024/02/27 08:42:44;;;;;;;;;;;;;;;8.90;60.35;101676.43;107582;1251;108209;-64
2024/02/27 08:45:12;;;;;;;;;;;;;;;9.00;60.45;101675.62;107566;1251;97918;-63
2024/02/27 08:47:40;;;;;;;;;;;;;;;9.20;60.58;101677.64;107066;1252;704440;-64
2024/02/27 08:50:08;;;;;;;;;;;;;;;9.44;60.45;101673.86;107608;1252;111400;-67
2024/02/27 08:52:37;;;;;;;;;;;;;;;9.68;58.78;101675.23;107625;1251;108803;-65
2024/02/27 08:55:06;;;;;;;;;;;;;;;9.80;57.64;101679.59;107589;1251;108096;-66
2024/02/27 08:57:35;;;;;;;;;;;;;;;9.94;57.40;101673.03;107581;1255;97841;-64
2024/02/27 09:00:06;;;;;;;;;;;;;;;10.14;57.06;101672.73;107550;1255;97845;-64
2024/02/27 09:02:37;;;;;;;;;;;;;;;10.36;56.37;101672.77;107629;1255;110125;-64
2024/02/27 09:05:06;;;;;;;;;;;;;;;10.57;56.12;101671.05;107601;1254;109399;-66
2024/02/27 09:07:41;;;;;;;;;;;;;;;10.74;55.01;101669.11;107633;1257;108757;-62
2024/02/27 09:10:10;;;;;;;;;;;;;;;10.81;54.58;101663.52;107597;1254;97845;-63
2024/02/27 09:12:39;;;;;;;;;;;;;;;10.94;53.93;101660.39;107613;1257;97838;-63
2024/02/27 09:15:08;;;;;;;;;;;;;;;11.06;53.47;101663.42;107646;1255;112216;-63
2024/02/27 09:17:37;;;;;;;;;;;;;;;11.31;53.57;101665.10;107614;1251;107468;-63
2024/02/27 09:20:06;;;;;;;;;;;;;;;11.57;53.13;101663.65;107599;1257;108042;-64
2024/02/27 09:22:35;;;;;;;;;;;;;;;11.86;51.71;101664.45;107583;1256;97820;-63
2024/02/27 09:25:03;;;;;;;;;;;;;;;12.16;51.27;101663.33;107628;1256;97830;-63
2024/02/27 09:27:34;;;;;;;;;;;;;;;12.51;50.03;101663.38;107551;1254;112211;-62
2024/02/27 09:30:03;;;;;;;;;;;;;;;12.89;49.21;101666.14;107602;1251;107749;-63
2024/02/27 09:32:31;;;;;;;;;;;;;;;13.19;47.93;101667.59;107586;1251;107603;-63
2024/02/27 09:34:59;;;;;;;;;;;;;;;13.56;47.72;101668.42;107622;1255;99405;-65
2024/02/27 09:37:28;;;;;;;;;;;;;;;14.00;47.69;101671.80;107549;1255;97711;-63
2024/02/27 09:39:56;;;;;;;;;;;;;;;14.42;47.95;101669.67;107592;1254;111072;-64
2024/02/27 09:42:28;;;;;;;;;;;;;;;14.79;45.30;101667.23;107540;1254;108719;-65
2024/02/27 09:45:05;;;;;;;;;;;;;;;15.06;44.78;101663.49;107600;1251;109085;-65
2024/02/27 09:47:37;;;;;;;;;;;;;;;15.18;43.35;101666.40;107556;1256;98039;-64
2024/02/27 09:50:07;;;;;;;;;;;;;;;15.28;42.58;101662.90;107606;1251;97723;-63
2024/02/27 09:52:36;;;;;;;;;;;;;;;15.50;42.30;101663.17;107659;1251;110817;-63
2024/02/27 09:55:05;;;;;;;;;;;;;;;15.83;42.14;101661.86;107604;1256;107899;-63
2024/02/27 09:57:33;;;;;;;;;;;;;;;16.27;41.47;101660.33;107611;1252;108504;-64
2024/02/27 10:00:02;;;;;;;;;;;;;;;16.61;41.13;101664.70;107575;1251;97829;-63
2024/02/27 10:02:40;;;;;;;;;;;;;;;17.00;41.79;101658.48;107610;1254;98034;-63
2024/02/27 10:05:09;;;;;;;;;;;;;;;17.46;40.91;101651.83;107603;1254;111739;-64
2024/02/27 10:07:38;;;;;;;;;;;;;;;17.81;39.95;101650.30;107675;1254;108321;-66
2024/02/27 10:10:07;;;;;;;;;;;;;;;17.87;37.85;101645.56;107623;1254;106519;-63
2024/02/27 10:12:35;;;;;;;;;;;;;;;17.92;37.73;101647.94;107610;1255;97860;-63
2024/02/27 10:15:05;;;;;;;;;;;;;;;18.06;36.84;101646.69;107615;1255;97832;-63
2024/02/27 10:17:35;;;;;;;;;;;;;;;18.16;37.52;101644.69;107602;1256;112283;-65
2024/02/27 10:20:05;;;;;;;;;;;;;;;18.37;36.00;101635.63;107625;1256;108577;-64
2024/02/27 10:22:34;;;;;;;;;;;;;;;18.22;35.62;101635.35;107616;1253;108884;-62
2024/02/27 10:25:07;;;;;;;;;;;;;;;18.16;35.61;101633.94;107603;1251;97855;-64
2024/02/27 10:27:37;;;;;;;;;;;;;;;18.21;35.62;101631.23;107620;1251;97718;-64
2024/02/27 10:30:06;;;;;;;;;;;;;;;18.14;35.38;101624.93;107630;1251;110428;-64
2024/02/27 10:32:34;;;;;;;;;;;;;;;18.24;36.85;101624.32;107632;1251;106921;-63
2024/02/27 10:35:03;;;;;;;;;;;;;;;18.66;35.54;101617.86;107644;1251;109188;-67
2024/02/27 10:37:32;;;;;;;;;;;;;;;18.64;34.62;101615.20;107625;1254;97824;-65
2024/02/27 10:40:01;;;;;;;;;;;;;;;18.48;34.70;101616.51;107521;1254;97860;-64
2024/02/27 10:42:29;;;;;;;;;;;;;;;18.74;34.72;101612.21;107609;1254;112171;-65
2024/02/27 10:44:58;;;;;;;;;;;;;;;18.69;33.83;101614.83;107508;1255;108696;-63
2024/02/27 10:47:26;;;;;;;;;;;;;;;18.83;34.67;101617.05;107597;1255;107660;-63
2024/02/27 10:49:55;;;;;;;;;;;;;;;19.29;33.75;101612.29;107573;1251;97832;-64
2024/02/27 10:52:26;;;;;;;;;;;;;;;19.16;32.92;101609.98;107523;1250;97844;-63
2024/02/27 10:54:55;;;;;;;;;;;;;;;19.36;32.85;101605.61;107556;1254;111830;-63
2024/02/27 10:57:24;;;;;;;;;;;;;;;19.44;32.65;101602.14;107632;1254;107923;-64
2024/02/27 10:59:54;;;;;;;;;;;;;;;19.40;32.48;101598.41;107607;1254;107937;-64
2024/02/27 11:02:25;;;;;;;;;;;;;;;19.33;32.46;101599.88;107625;1255;97834;-63
2024/02/27 11:04:53;;;;;;;;;;;;;;;19.41;32.27;101601.58;107662;1254;97835;-64
2024/02/27 11:07:23;;;;;;;;;;;;;;;19.63;32.33;101604.16;107628;1254;111083;-64
2024/02/27 11:09:51;;;;;;;;;;;;;;;19.82;31.74;101604.40;107649;1254;108311;-63
2024/02/27 11:12:20;;;;;;;;;;;;;;;20.07;32.44;101602.05;107610;1254;107708;-64
2024/02/27 11:14:50;;;;;;;;;;;;;;;20.49;32.05;101600.87;107656;1254;97931;-64
2024/02/27 11:17:20;;;;;;;;;;;;;;;20.70;31.03;101599.90;107629;1252;98007;-64
2024/02/27 11:19:50;;;;;;;;;;;;;;;20.71;30.99;101598.05;107641;1253;110736;-64
2024/02/27 11:22:22;;;;;;;;;;;;;;;21.00;31.28;101593.46;107622;1253;108117;-63
2024/02/27 11:24:50;;;;;;;;;;;;;;;21.20;30.51;101590.23;107580;1254;107715;-63
2024/02/27 11:27:23;;;;;;;;;;;;;;;21.11;29.77;101592.76;107583;1254;97901;-64
2024/02/27 11:29:53;;;;;;;;;;;;;;;21.08;30.53;101590.17;107608;1253;97711;-64
2024/02/27 11:32:21;;;;;;;;;;;;;;;21.45;30.13;101585.55;107650;1254;111265;-63
2024/02/27 11:34:49;;;;;;;;;;;;;;;21.51;29.74;101586.04;107613;1257;107062;-64
2024/02/27 11:37:20;;;;;;;;;;;;;;;21.25;29.43;101584.55;107598;1254;108466;-64
2024/02/27 11:39:49;;;;;;;;;;;;;;;21.04;29.52;101590.54;107619;1254;97854;-68
2024/02/27 11:42:20;;;;;;;;;;;;;;;20.94;30.09;101585.29;107597;1254;97903;-66
2024/02/27 11:45:02;;;;;;;;;;;;;;;20.80;29.65;101583.89;107667;1254;111722;-62
2024/02/27 11:47:37;;;;;;;;;;;;;;;20.43;29.85;101588.20;107682;1254;107900;-64
2024/02/27 11:50:08;;;;;;;;;;;;;;;20.27;30.58;101584.21;107569;1251;107199;-65
2024/02/27 11:52:41;;;;;;;;;;;;;;;20.13;31.04;101584.64;107576;1253;97928;-64
2024/02/27 11:55:11;;;;;;;;;;;;;;;20.10;31.14;101582.75;107622;1257;97680;-64
2024/02/27 11:57:39;;;;;;;;;;;;;;;20.06;31.06;101580.27;107652;1254;110554;-64
2024/02/27 12:00:08;;;;;;;;;;;;;;;19.82;31.09;101578.61;107594;1254;108811;-64
2024/02/27 12:02:37;;;;;;;;;;;;;;;19.58;31.04;101580.57;107506;1254;108535;-64
2024/02/27 12:05:05;;;;;;;;;;;;;;;19.23;31.26;101579.16;107620;1253;97839;-64
2024/02/27 12:07:34;;;;;;;;;;;;;;;19.17;31.55;101576.28;107637;1253;97761;-65
2024/02/27 12:10:06;;;;;;;;;;;;;;;19.12;31.48;101576.50;107600;1256;112140;-65
2024/02/27 12:12:35;;;;;;;;;;;;;;;19.04;31.53;101577.16;107664;1251;108621;-63
2024/02/27 12:15:04;;;;;;;;;;;;;;;18.90;31.83;101575.92;107530;1254;107659;-65
2024/02/27 12:17:33;;;;;;;;;;;;;;;18.88;31.79;101576.77;107636;1254;97837;-62
2024/02/27 12:20:11;;;;;;;;;;;;;;;18.77;32.18;101575.69;107662;1252;97829;-64
2024/02/27 12:22:45;;;;;;;;;;;;;;;18.77;32.32;101576.07;107626;1254;112146;-63
2024/02/27 12:25:16;;;;;;;;;;;;;;;18.77;32.42;101577.23;107656;1254;107954;-62
2024/02/27 12:27:45;;;;;;;;;;;;;;;18.71;32.40;101575.07;107692;1254;108781;-63
2024/02/27 12:30:14;;;;;;;;;;;;;;;18.57;32.30;101577.91;107697;1253;97900;-63
2024/02/27 12:32:43;;;;;;;;;;;;;;;18.39;32.32;101574.27;107597;1251;97726;-64
2024/02/27 12:35:13;;;;;;;;;;;;;;;18.24;32.11;101572.29;107517;1254;111929;-63
2024/02/27 12:37:42;;;;;;;;;;;;;;;18.04;32.48;101576.20;107506;1251;108710;-63
2024/02/27 12:40:15;;;;;;;;;;;;;;;17.98;32.22;101574.83;107445;1251;108294;-65